createdAt,value
2018-09-02T00:00:49.798Z,3.43
2018-09-02T00:03:19.143Z,4.40
2018-09-02T00:05:48.416Z,3.30
2018-09-02T00:08:17.752Z,3.67
2018-09-02T00:10:46.829Z,4.40
2018-09-02T00:13:16.110Z,3.90
2018-09-02T00:15:45.468Z,3.37
2018-09-02T00:18:15.204Z,3.47
2018-09-02T00:20:44.267Z,3.73
2018-09-02T00:23:14.111Z,3.90
2018-09-02T00:25:44.611Z,3.87
2018-09-02T00:28:13.956Z,4.47
2018-09-02T00:30:43.335Z,4.30
2018-09-02T00:33:12.525Z,3.70
2018-09-02T00:35:41.838Z,3.47
2018-09-02T00:38:11.191Z,3.37
2018-09-02T00:40:40.621Z,3.47
2018-09-02T00:43:11.049Z,3.30
2018-09-02T00:45:40.373Z,3.80
2018-09-02T00:48:09.890Z,3.67
2018-09-02T00:50:39.222Z,3.17
2018-09-02T00:53:08.578Z,3.80
2018-09-02T00:55:37.961Z,3.77
2018-09-02T00:58:07.405Z,3.50
2018-09-02T01:00:36.819Z,3.50
2018-09-02T01:03:06.187Z,3.67
2018-09-02T01:05:35.632Z,3.80
2018-09-02T01:08:04.989Z,3.33
2018-09-02T01:10:34.332Z,3.27
2018-09-02T01:13:03.623Z,3.43
2018-09-02T01:15:32.910Z,4.00
2018-09-02T01:18:02.268Z,3.93
2018-09-02T01:20:31.723Z,3.27
2018-09-02T01:23:01.079Z,3.60
2018-09-02T01:25:30.399Z,3.73
2018-09-02T01:27:59.705Z,3.33
2018-09-02T01:30:29.005Z,3.47
2018-09-02T01:32:58.093Z,3.70
2018-09-02T01:35:34.409Z,3.90
2018-09-02T01:38:05.191Z,3.20
2018-09-02T01:40:35.427Z,3.57
2018-09-02T01:43:05.304Z,3.23
2018-09-02T01:45:34.832Z,3.83
2018-09-02T01:48:04.335Z,3.60
2018-09-02T01:50:33.602Z,3.40
2018-09-02T01:53:02.913Z,4.03
2018-09-02T01:55:32.245Z,3.33
2018-09-02T01:58:01.593Z,3.80
2018-09-02T02:00:30.945Z,3.60
2018-09-02T02:03:00.186Z,3.87
2018-09-02T02:05:29.564Z,3.70
2018-09-02T02:07:58.836Z,3.40
2018-09-02T02:10:28.346Z,3.60
2018-09-02T02:12:58.642Z,3.67
2018-09-02T02:15:27.875Z,3.73
2018-09-02T02:17:57.160Z,3.30
2018-09-02T02:20:27.412Z,3.40
2018-09-02T02:22:56.700Z,4.40
2018-09-02T02:25:26.044Z,3.40
2018-09-02T02:27:55.479Z,3.60
2018-09-02T02:30:24.775Z,3.57
2018-09-02T02:32:53.866Z,3.27
2018-09-02T02:35:23.153Z,3.40
2018-09-02T02:37:52.206Z,3.63
2018-09-02T02:40:21.523Z,3.50
2018-09-02T02:42:50.782Z,3.30
2018-09-02T02:45:20.155Z,3.43
2018-09-02T02:47:49.521Z,3.67
2018-09-02T02:50:18.500Z,3.27
2018-09-02T02:52:52.897Z,3.63
2018-09-02T02:55:22.367Z,3.80
2018-09-02T02:57:51.677Z,3.47
2018-09-02T03:00:20.963Z,3.80
2018-09-02T03:02:50.309Z,3.93
2018-09-02T03:05:19.625Z,4.27
2018-09-02T03:07:49.062Z,4.03
2018-09-02T03:10:18.570Z,3.27
2018-09-02T03:12:47.888Z,3.90
2018-09-02T03:15:17.710Z,3.73
2018-09-02T03:17:46.952Z,3.90
2018-09-02T03:20:16.287Z,3.77
2018-09-02T03:22:45.627Z,3.80
2018-09-02T03:25:14.985Z,3.40
2018-09-02T03:27:44.042Z,3.47
2018-09-02T03:30:14.057Z,3.57
2018-09-02T03:32:43.431Z,3.17
2018-09-02T03:35:12.767Z,3.10
2018-09-02T03:37:42.020Z,3.20
2018-09-02T03:40:11.734Z,3.83
2018-09-02T03:42:41.075Z,3.13
2018-09-02T03:45:10.442Z,3.40
2018-09-02T03:47:39.771Z,3.10
2018-09-02T03:50:09.108Z,3.50
2018-09-02T03:52:38.712Z,3.17
2018-09-02T03:55:08.020Z,3.07
2018-09-02T03:57:37.310Z,3.63
2018-09-02T04:00:06.984Z,3.57
2018-09-02T04:02:36.321Z,3.40
2018-09-02T04:05:05.960Z,3.10
2018-09-02T04:07:35.114Z,3.43
2018-09-02T04:10:04.290Z,3.13
2018-09-02T04:12:33.423Z,2.93
2018-09-02T04:15:02.602Z,3.67
2018-09-02T04:17:31.827Z,3.47
2018-09-02T04:20:01.094Z,3.40
2018-09-02T04:22:30.386Z,3.00
2018-09-02T04:24:59.746Z,3.17
2018-09-02T04:27:28.980Z,3.17
2018-09-02T04:29:58.322Z,3.43
2018-09-02T04:32:27.646Z,3.07
2018-09-02T04:34:56.985Z,3.30
2018-09-02T04:37:26.287Z,3.37
2018-09-02T04:39:55.660Z,3.03
2018-09-02T04:42:24.755Z,3.63
2018-09-02T04:44:54.026Z,3.40
2018-09-02T04:47:23.393Z,3.10
2018-09-02T04:49:52.518Z,3.40
2018-09-02T04:52:21.790Z,3.50
2018-09-02T04:54:50.720Z,3.80
2018-09-02T04:57:20.028Z,3.27
2018-09-02T04:59:49.130Z,3.23
2018-09-02T05:02:18.395Z,3.53
2018-09-02T05:04:47.710Z,3.60
2018-09-02T05:07:17.065Z,3.10
2018-09-02T05:09:46.393Z,3.33
2018-09-02T05:12:15.741Z,3.63
2018-09-02T05:14:45.129Z,3.57
2018-09-02T05:17:14.479Z,3.27
2018-09-02T05:19:43.843Z,3.33
2018-09-02T05:22:13.263Z,3.80
2018-09-02T05:24:42.746Z,2.83
2018-09-02T05:27:12.137Z,3.63
2018-09-02T05:29:41.206Z,3.70
2018-09-02T05:32:10.504Z,3.53
2018-09-02T05:34:39.840Z,3.57
2018-09-02T05:37:09.122Z,3.43
2018-09-02T05:39:38.554Z,3.47
2018-09-02T05:42:07.878Z,3.47
2018-09-02T05:44:37.118Z,4.50
2018-09-02T05:47:07.772Z,3.80
2018-09-02T05:49:36.747Z,3.90
2018-09-02T05:52:06.101Z,3.83
2018-09-02T05:54:35.534Z,3.50
2018-09-02T05:57:04.896Z,4.00
2018-09-02T05:59:34.443Z,3.70
2018-09-02T06:02:04.178Z,4.03
2018-09-02T06:04:33.534Z,4.23
2018-09-02T06:07:02.877Z,4.07
2018-09-02T06:09:32.820Z,4.03
2018-09-02T06:12:03.138Z,3.73
2018-09-02T06:14:32.201Z,4.70
2018-09-02T06:17:01.474Z,4.67
2018-09-02T06:19:31.218Z,4.10
2018-09-02T06:22:00.456Z,3.30
2018-09-02T06:24:29.796Z,4.23
2018-09-02T06:26:59.900Z,4.27
2018-09-02T06:29:29.216Z,4.47
2018-09-02T06:31:58.509Z,4.73
2018-09-02T06:34:27.858Z,4.10
2018-09-02T06:36:57.199Z,4.17
2018-09-02T06:39:27.298Z,4.00
2018-09-02T06:41:56.666Z,4.50
2018-09-02T06:44:26.004Z,3.97
2018-09-02T06:46:55.256Z,4.50
2018-09-02T06:49:24.275Z,4.63
2018-09-02T06:51:53.567Z,5.30
2018-09-02T06:54:27.766Z,4.17
2018-09-02T06:56:57.196Z,4.83
2018-09-02T06:59:26.560Z,3.97
2018-09-02T07:01:55.824Z,4.20
2018-09-02T07:04:24.915Z,4.73
2018-09-02T07:06:54.311Z,4.47
2018-09-02T07:09:23.379Z,4.97
2018-09-02T07:11:52.845Z,4.00
2018-09-02T07:14:22.250Z,4.27
2018-09-02T07:16:51.657Z,4.63
2018-09-02T07:19:21.162Z,4.70
2018-09-02T07:21:50.548Z,4.17
2018-09-02T07:24:20.629Z,4.17
2018-09-02T07:26:49.728Z,4.07
2018-09-02T07:29:19.062Z,4.50
2018-09-02T07:31:48.295Z,4.10
2018-09-02T07:34:17.347Z,4.03
2018-09-02T07:36:46.320Z,4.30
2018-09-02T07:39:15.676Z,5.17
2018-09-02T07:41:44.884Z,4.47
2018-09-02T07:44:14.298Z,4.53
2018-09-02T07:46:43.611Z,5.00
2018-09-02T07:49:12.693Z,5.20
2018-09-02T07:51:42.055Z,5.47
2018-09-02T07:54:11.411Z,5.57
2018-09-02T07:56:40.756Z,5.30
2018-09-02T07:59:10.163Z,5.03
2018-09-02T08:01:39.195Z,5.17
2018-09-02T08:04:08.573Z,4.33
2018-09-02T08:06:37.941Z,4.63
2018-09-02T08:09:08.715Z,5.00
2018-09-02T08:11:37.959Z,4.87
2018-09-02T08:14:07.232Z,6.10
2018-09-02T08:16:37.119Z,6.10
2018-09-02T08:19:05.958Z,5.87
2018-09-02T08:21:35.237Z,5.50
2018-09-02T08:24:04.521Z,5.50
2018-09-02T08:26:33.782Z,6.43
2018-09-02T08:29:03.040Z,5.93
2018-09-02T08:31:32.079Z,6.17
2018-09-02T08:34:01.171Z,5.90
2018-09-02T08:36:30.566Z,6.57
2018-09-02T08:38:59.956Z,6.33
2018-09-02T08:41:29.244Z,6.53
2018-09-02T08:43:58.497Z,5.83
2018-09-02T08:46:27.568Z,5.77
2018-09-02T08:48:56.891Z,7.03
2018-09-02T08:51:26.166Z,6.07
2018-09-02T08:53:55.194Z,6.47
2018-09-02T08:56:24.664Z,6.17
2018-09-02T08:58:53.988Z,6.23
2018-09-02T09:01:23.443Z,6.30
2018-09-02T09:03:52.773Z,6.10
2018-09-02T09:06:22.204Z,6.67
2018-09-02T09:08:51.511Z,6.80
2018-09-02T09:11:20.678Z,6.67
2018-09-02T09:13:49.681Z,6.10
2018-09-02T09:16:18.757Z,5.67
2018-09-02T09:18:48.041Z,6.17
2018-09-02T09:21:17.367Z,7.73
2018-09-02T09:23:46.697Z,6.53
2018-09-02T09:26:15.824Z,5.90
2018-09-02T09:28:45.274Z,6.87
2018-09-02T09:31:14.685Z,7.70
2018-09-02T09:33:44.042Z,6.87
2018-09-02T09:36:14.028Z,6.77
2018-09-02T09:38:43.285Z,7.57
2018-09-02T09:41:12.642Z,7.07
2018-09-02T09:43:41.917Z,7.27
2018-09-02T09:46:11.054Z,8.67
2018-09-02T09:48:40.378Z,6.77
2018-09-02T09:51:09.764Z,7.77
2018-09-02T09:53:39.076Z,6.97
2018-09-02T09:56:08.470Z,7.03
2018-09-02T09:58:37.571Z,6.53
2018-09-02T10:01:07.302Z,7.07
2018-09-02T10:03:36.335Z,6.53
2018-09-02T10:06:05.807Z,6.53
2018-09-02T10:08:35.060Z,6.60
2018-09-02T10:11:04.076Z,6.60
2018-09-02T10:13:33.448Z,7.30
2018-09-02T10:16:02.850Z,7.20
2018-09-02T10:18:32.153Z,7.30
2018-09-02T10:21:01.522Z,6.90
2018-09-02T10:23:30.874Z,8.93
2018-09-02T10:26:00.208Z,9.67
2018-09-02T10:28:29.623Z,8.13
2018-09-02T10:30:58.660Z,7.37
2018-09-02T10:33:28.099Z,8.90
2018-09-02T10:35:57.435Z,8.77
2018-09-02T10:38:26.550Z,8.87
2018-09-02T10:40:55.623Z,7.80
2018-09-02T10:43:24.926Z,6.70
2018-09-02T10:45:54.201Z,6.87
2018-09-02T10:48:23.486Z,8.03
2018-09-02T10:50:52.961Z,7.30
2018-09-02T10:53:22.012Z,7.77
2018-09-02T10:55:51.364Z,9.73
2018-09-02T10:58:20.510Z,8.03
2018-09-02T11:00:49.535Z,11.40
2018-09-02T11:03:18.817Z,7.60
2018-09-02T11:05:48.138Z,10.40
2018-09-02T11:08:17.235Z,11.53
2018-09-02T11:10:46.604Z,11.67
2018-09-02T11:13:16.120Z,9.37
2018-09-02T11:15:45.624Z,8.37
2018-09-02T11:18:15.044Z,8.33
2018-09-02T11:20:44.427Z,9.60
2018-09-02T11:23:13.913Z,10.30
2018-09-02T11:25:43.299Z,8.40
2018-09-02T11:28:13.149Z,9.17
2018-09-02T11:30:42.424Z,8.20
2018-09-02T11:33:11.484Z,8.90
2018-09-02T11:35:40.513Z,11.20
2018-09-02T11:38:09.520Z,10.03
2018-09-02T11:40:38.544Z,7.90
2018-09-02T11:43:07.887Z,7.23
2018-09-02T11:45:37.077Z,6.77
2018-09-02T11:48:06.409Z,7.47
2018-09-02T11:50:35.479Z,7.93
2018-09-02T11:53:04.891Z,7.90
2018-09-02T11:55:34.213Z,7.00
2018-09-02T11:58:03.473Z,7.90
2018-09-02T12:00:32.503Z,7.20
2018-09-02T12:03:01.806Z,7.43
2018-09-02T12:05:31.199Z,7.77
2018-09-02T12:08:01.245Z,10.13
2018-09-02T12:10:30.636Z,8.70
2018-09-02T12:13:00.389Z,6.93
2018-09-02T12:15:29.489Z,7.50
2018-09-02T12:17:58.503Z,8.43
2018-09-02T12:20:27.518Z,8.43
2018-09-02T12:22:56.827Z,7.93
2018-09-02T12:25:26.147Z,8.17
2018-09-02T12:27:55.472Z,7.50
2018-09-02T12:30:24.742Z,7.50
2018-09-02T12:32:54.065Z,7.50
2018-09-02T12:35:23.381Z,7.50
2018-09-02T12:37:52.690Z,9.03
2018-09-02T12:40:22.020Z,9.10
2018-09-02T12:42:51.387Z,8.67
2018-09-02T12:45:20.714Z,8.90
2018-09-02T12:47:50.141Z,9.40
2018-09-02T12:50:19.364Z,8.70
2018-09-02T12:52:48.647Z,9.50
2018-09-02T12:55:18.183Z,8.40
2018-09-02T12:57:47.448Z,8.40
2018-09-02T13:00:16.555Z,7.20
2018-09-02T13:02:45.657Z,9.00
2018-09-02T13:05:21.676Z,8.20
2018-09-02T13:07:50.700Z,8.57
2018-09-02T13:10:20.237Z,9.33
2018-09-02T13:12:49.663Z,9.27
2018-09-02T13:15:18.895Z,9.53
2018-09-02T13:17:47.952Z,9.80
2018-09-02T13:20:17.249Z,10.20
2018-09-02T13:22:46.473Z,8.43
2018-09-02T13:25:15.771Z,7.80
2018-09-02T13:27:44.834Z,9.33
2018-09-02T13:30:14.247Z,10.77
2018-09-02T13:32:43.593Z,9.97
2018-09-02T13:35:13.092Z,9.27
2018-09-02T13:37:42.541Z,8.77
2018-09-02T13:40:12.172Z,9.67
2018-09-02T13:42:41.492Z,10.00
2018-09-02T13:45:10.859Z,10.53
2018-09-02T13:47:40.226Z,10.40
2018-09-02T13:50:09.656Z,9.37
2018-09-02T13:52:38.955Z,10.67
2018-09-02T13:55:08.244Z,11.10
2018-09-02T13:57:47.682Z,9.70
2018-09-02T14:00:17.608Z,9.87
2018-09-02T14:02:46.737Z,9.63
2018-09-02T14:05:16.113Z,9.93
2018-09-02T14:07:45.223Z,9.87
2018-09-02T14:10:14.210Z,10.27
2018-09-02T14:12:44.096Z,8.60
2018-09-02T14:15:14.426Z,10.63
2018-09-02T14:17:44.302Z,11.50
2018-09-02T14:20:13.642Z,9.00
2018-09-02T14:22:43.002Z,9.60
2018-09-02T14:25:12.459Z,9.83
2018-09-02T14:27:41.886Z,9.77
2018-09-02T14:30:11.362Z,9.80
2018-09-02T14:32:40.675Z,10.80
2018-09-02T14:35:10.077Z,10.60
2018-09-02T14:37:39.488Z,10.13
2018-09-02T14:40:08.904Z,9.87
2018-09-02T14:42:38.232Z,10.47
2018-09-02T14:45:07.674Z,9.43
2018-09-02T14:47:37.017Z,10.83
2018-09-02T14:50:06.375Z,11.30
2018-09-02T14:52:35.677Z,10.07
2018-09-02T14:55:04.873Z,12.57
2018-09-02T14:57:34.180Z,11.17
2018-09-02T15:00:03.487Z,10.20
2018-09-02T15:02:32.864Z,12.87
2018-09-02T15:05:02.388Z,12.03
2018-09-02T15:07:31.825Z,12.23
2018-09-02T15:10:01.182Z,13.20
2018-09-02T15:12:30.258Z,13.37
2018-09-02T15:14:59.632Z,13.17
2018-09-02T15:17:28.860Z,11.97
2018-09-02T15:19:58.076Z,10.73
2018-09-02T15:22:27.092Z,13.23
2018-09-02T15:24:56.443Z,11.43
2018-09-02T15:27:25.823Z,12.57
2018-09-02T15:29:55.192Z,12.40
2018-09-02T15:32:24.567Z,13.83
2018-09-02T15:34:53.874Z,12.53
2018-09-02T15:37:23.156Z,14.80
2018-09-02T15:39:54.847Z,15.27
2018-09-02T15:42:24.211Z,16.00
2018-09-02T15:44:54.372Z,16.40
2018-09-02T15:47:23.768Z,15.43
2018-09-02T15:49:52.861Z,14.37
2018-09-02T15:52:22.076Z,15.60
2018-09-02T15:54:51.509Z,16.20
2018-09-02T15:57:20.877Z,15.67
2018-09-02T15:59:50.314Z,14.93
2018-09-02T16:02:19.641Z,17.93
2018-09-02T16:04:48.703Z,19.40
2018-09-02T16:07:17.833Z,16.13
2018-09-02T16:09:47.186Z,16.83
2018-09-02T16:12:16.421Z,14.90
2018-09-02T16:14:45.667Z,15.73
2018-09-02T16:17:14.858Z,18.37
2018-09-02T16:19:44.172Z,13.70
2018-09-02T16:22:13.169Z,16.57
2018-09-02T16:24:42.508Z,19.57
2018-09-02T16:27:11.815Z,18.47
2018-09-02T16:29:41.342Z,15.50
2018-09-02T16:32:20.101Z,18.83
2018-09-02T16:34:49.877Z,18.23
2018-09-02T16:37:19.199Z,19.27
2018-09-02T16:39:48.631Z,19.57
2018-09-02T16:42:18.099Z,17.73
2018-09-02T16:44:47.318Z,19.57
2018-09-02T16:47:30.032Z,17.77
2018-09-02T16:49:59.377Z,18.03
2018-09-02T16:52:28.505Z,17.87
2018-09-02T16:54:57.645Z,20.60
2018-09-02T16:57:27.047Z,19.53
2018-09-02T16:59:56.450Z,19.20
2018-09-02T17:02:25.576Z,22.93
2018-09-02T17:04:59.091Z,20.87
2018-09-02T17:07:29.029Z,21.03
2018-09-02T17:10:14.680Z,20.27
2018-09-02T17:15:43.708Z,19.30
2018-09-02T17:18:13.085Z,21.13
2018-09-02T17:20:44.911Z,21.03
2018-09-02T17:23:14.894Z,21.80
2018-09-02T17:25:53.385Z,20.50
2018-09-02T17:28:22.708Z,20.83
2018-09-02T17:30:51.931Z,19.87
2018-09-02T17:33:25.443Z,17.93
2018-09-02T17:35:54.584Z,17.50
2018-09-02T17:38:23.969Z,19.50
2018-09-02T17:40:53.666Z,19.53
2018-09-02T17:43:23.277Z,18.43
2018-09-02T17:46:06.547Z,20.57
2018-09-02T17:48:35.919Z,20.13
2018-09-02T17:51:05.411Z,18.00
2018-09-02T17:53:34.804Z,20.63
2018-09-02T17:56:03.844Z,19.10
2018-09-02T17:58:33.206Z,22.13
2018-09-02T18:01:02.652Z,22.97
2018-09-02T18:03:31.841Z,20.13
2018-09-02T18:06:01.062Z,19.03
2018-09-02T18:08:30.505Z,20.17
2018-09-02T18:10:59.845Z,20.30
2018-09-02T18:13:29.133Z,21.17
2018-09-02T18:15:58.526Z,22.60
2018-09-02T18:18:27.659Z,20.87
2018-09-02T18:20:57.625Z,20.40
2018-09-02T18:23:27.091Z,20.90
2018-09-02T18:25:56.471Z,20.50
2018-09-02T18:28:28.768Z,21.60
2018-09-02T18:30:58.126Z,20.53
2018-09-02T18:33:27.463Z,21.60
2018-09-02T18:35:56.887Z,18.67
2018-09-02T18:38:26.451Z,20.27
2018-09-02T18:40:55.578Z,21.00
2018-09-02T18:43:24.940Z,19.40
2018-09-02T18:45:54.265Z,19.90
2018-09-02T18:48:23.349Z,19.80
2018-09-02T18:50:52.634Z,20.67
2018-09-02T18:53:21.949Z,19.77
2018-09-02T18:56:01.268Z,20.03
2018-09-02T18:58:30.661Z,19.50
2018-09-02T19:01:01.721Z,19.57
2018-09-02T19:03:30.780Z,20.30
2018-09-02T19:06:00.601Z,20.37
2018-09-02T19:08:29.952Z,19.40
2018-09-02T19:10:59.011Z,18.03
2018-09-02T19:13:28.386Z,19.20
2018-09-02T19:15:57.709Z,19.87
2018-09-02T19:18:27.009Z,19.43
2018-09-02T19:20:56.456Z,20.43
2018-09-02T19:23:25.606Z,20.63
2018-09-02T19:28:56.159Z,19.00
2018-09-02T19:34:39.142Z,20.00
2018-09-02T19:37:08.636Z,18.03
2018-09-02T19:39:38.013Z,18.43
2018-09-02T19:42:13.867Z,16.63
2018-09-02T19:44:43.161Z,17.67
2018-09-02T19:47:12.196Z,17.40
2018-09-02T19:49:41.768Z,17.50
2018-09-02T19:52:11.353Z,17.43
2018-09-02T19:54:40.531Z,16.93
2018-09-02T19:57:09.597Z,16.93
2018-09-02T19:59:38.928Z,16.67
2018-09-02T20:02:08.314Z,17.73
2018-09-02T20:04:37.774Z,15.87
2018-09-02T20:07:07.104Z,16.73
2018-09-02T20:09:36.208Z,17.03
2018-09-02T20:12:05.466Z,16.27
2018-09-02T20:14:34.808Z,17.37
2018-09-02T20:17:04.166Z,17.13
2018-09-02T20:19:33.986Z,16.63
2018-09-02T20:22:03.454Z,16.73
2018-09-02T20:24:32.535Z,16.77
2018-09-02T20:27:01.698Z,17.03
2018-09-02T20:29:30.792Z,16.57
2018-09-02T20:32:00.201Z,16.93
2018-09-02T20:34:29.525Z,16.50
2018-09-02T20:36:58.684Z,16.70
2018-09-02T20:39:27.756Z,16.33
2018-09-02T20:41:57.146Z,16.93
2018-09-02T20:44:26.203Z,15.90
2018-09-02T20:46:56.124Z,16.33
2018-09-02T20:49:25.462Z,16.77
2018-09-02T20:51:54.487Z,16.63
2018-09-02T20:54:23.829Z,16.97
2018-09-02T20:56:53.188Z,16.67
2018-09-02T20:59:22.525Z,15.43
2018-09-02T21:01:51.857Z,15.97
2018-09-02T21:04:21.223Z,16.10
2018-09-02T21:06:50.534Z,16.87
2018-09-02T21:09:19.712Z,15.93
2018-09-02T21:11:49.034Z,15.13
2018-09-02T21:14:18.393Z,15.83
2018-09-02T21:16:47.740Z,15.43
2018-09-02T21:19:16.810Z,14.70
2018-09-02T21:21:46.105Z,15.00
2018-09-02T21:24:15.204Z,15.27
2018-09-02T21:26:44.908Z,15.17
2018-09-02T21:29:14.200Z,15.30
2018-09-02T21:31:43.653Z,14.87
2018-09-02T21:34:13.224Z,14.00
2018-09-02T21:36:42.740Z,14.03
2018-09-02T21:39:11.744Z,14.03
2018-09-02T21:41:41.007Z,14.33
2018-09-02T21:44:10.087Z,13.07
2018-09-02T21:46:39.439Z,14.33
2018-09-02T21:49:08.770Z,14.80
2018-09-02T21:51:38.170Z,14.30
2018-09-02T21:54:07.598Z,13.43
2018-09-02T21:56:36.956Z,12.43
2018-09-02T21:59:06.269Z,12.23
2018-09-02T22:01:35.611Z,11.67
2018-09-02T22:04:04.914Z,12.03
2018-09-02T22:06:34.269Z,11.73
2018-09-02T22:09:09.690Z,11.57
2018-09-02T22:11:39.033Z,10.97
2018-09-02T22:14:08.175Z,11.00
2018-09-02T22:16:37.592Z,10.80
2018-09-02T22:19:06.801Z,10.13
2018-09-02T22:21:36.193Z,11.90
2018-09-02T22:24:05.663Z,11.10
2018-09-02T22:26:35.109Z,10.53
2018-09-02T22:29:04.740Z,11.43
2018-09-02T22:31:34.037Z,10.70
2018-09-02T22:34:03.381Z,10.43
2018-09-02T22:36:32.760Z,10.43
2018-09-02T22:39:02.053Z,11.33
2018-09-02T22:41:31.370Z,10.00
2018-09-02T22:44:00.731Z,10.00
2018-09-02T22:46:30.065Z,10.07
2018-09-02T22:48:59.418Z,9.23
2018-09-02T22:51:28.511Z,10.00
2018-09-02T22:53:57.907Z,9.40
2018-09-02T22:56:27.245Z,9.50
2018-09-02T22:58:56.281Z,9.67
2018-09-02T23:01:25.588Z,8.87
2018-09-02T23:03:55.005Z,9.17
2018-09-02T23:06:24.094Z,9.20
2018-09-02T23:08:53.381Z,9.97
2018-09-02T23:11:22.722Z,8.17
2018-09-02T23:13:52.040Z,9.60
2018-09-02T23:16:21.126Z,8.93
2018-09-02T23:18:50.176Z,9.07
2018-09-02T23:21:19.584Z,8.53
2018-09-02T23:23:48.829Z,8.87
2018-09-02T23:26:18.085Z,8.33
2018-09-02T23:28:47.558Z,8.63
2018-09-02T23:31:16.827Z,10.63
2018-09-02T23:33:45.835Z,9.93
2018-09-02T23:36:15.193Z,9.97
2018-09-02T23:38:44.977Z,9.30
2018-09-02T23:41:14.318Z,9.13
2018-09-02T23:43:43.726Z,9.97
2018-09-02T23:46:13.112Z,8.63
2018-09-02T23:48:42.413Z,9.33
2018-09-02T23:51:11.490Z,8.70
2018-09-02T23:56:37.808Z,8.20
2018-09-02T23:59:07.180Z,8.90
